Time;durP1;ratioP1;P1;durP2;ratioP2;P2;SDS_P1;SDS_P2;PMS_P1;PMS_P2;Temp;Humidity;BMP_temperature;BMP_pressure;BME280_temperature;BME280_humidity;BME280_pressure;Samples;Min_cycle;Max_cycle;Signal;HPM_P1;HPM_P2
2023/05/10 00:01:21;;;;;;;1.85;0.77;;;;;;;8.87;100.00;99942.13;4892378;29;20048;-90
2023/05/10 00:03:47;;;;;;;0.20;0.20;;;;;;;8.80;100.00;99928.44;4879312;29;20047;-89
2023/05/10 00:06:13;;;;;;;1.35;0.85;;;;;;;8.93;100.00;99939.63;4895031;29;20376;-90
2023/05/10 00:08:38;;;;;;;0.22;0.20;;;;;;;8.96;100.00;99932.47;4897603;29;20551;-90
2023/05/10 00:11:04;;;;;;;0.05;0.05;;;;;;;8.86;100.00;99925.94;4889757;29;20048;-90
2023/05/10 00:13:29;;;;;;;0.10;0.10;;;;;;;8.91;100.00;99936.50;4880066;29;20060;-90
2023/05/10 00:15:55;;;;;;;0.73;0.63;;;;;;;8.69;100.00;99908.53;4872689;29;20068;-91
2023/05/10 00:18:20;;;;;;;0.15;0.15;;;;;;;8.75;100.00;99914.31;4884094;29;20068;-90
2023/05/10 00:20:46;;;;;;;0.20;0.20;;;;;;;8.65;100.00;99896.00;4864237;29;20052;-91
2023/05/10 00:23:12;;;;;;;0.35;0.35;;;;;;;8.78;100.00;99911.50;4869594;29;20606;-89
2023/05/10 00:25:37;;;;;;;0.13;0.13;;;;;;;8.87;100.00;99924.75;4849878;29;20036;-90
2023/05/10 00:28:03;;;;;;;0.00;0.00;;;;;;;8.81;100.00;99915.41;4871285;29;20049;-90
2023/05/10 00:30:29;;;;;;;0.70;0.70;;;;;;;8.65;100.00;99890.47;4846608;29;20582;-89
2023/05/10 00:32:55;;;;;;;0.10;0.10;;;;;;;8.66;100.00;99892.78;4873648;29;20268;-90
2023/05/10 00:35:21;;;;;;;0.35;0.35;;;;;;;8.72;100.00;99906.91;4849258;29;20518;-89
2023/05/10 00:37:47;;;;;;;0.63;0.63;;;;;;;8.80;100.00;99919.38;4849700;29;20117;-90
2023/05/10 00:40:14;;;;;;;0.55;0.40;;;;;;;8.66;100.00;99908.59;4862176;29;20408;-90
2023/05/10 00:42:42;;;;;;;0.10;0.10;;;;;;;8.61;100.00;99911.88;4863367;29;20044;-93
2023/05/10 00:45:08;;;;;;;2.30;1.15;;;;;;;8.52;100.00;99906.13;4865789;29;20046;-94
2023/05/10 00:47:34;;;;;;;0.20;0.20;;;;;;;8.50;100.00;99897.47;4847542;29;20043;-93
2023/05/10 00:50:01;;;;;;;1.15;1.08;;;;;;;8.38;100.00;99907.97;4865698;29;20037;-94
2023/05/10 00:52:28;;;;;;;0.10;0.10;;;;;;;8.32;100.00;99911.66;4868691;29;20055;-96
2023/05/10 00:54:55;;;;;;;0.65;0.65;;;;;;;8.21;100.00;99900.78;4870498;29;20044;-95
2023/05/10 00:57:21;;;;;;;0.13;0.05;;;;;;;8.19;100.00;99913.47;4859758;29;20056;-93
2023/05/10 00:59:47;;;;;;;0.30;0.30;;;;;;;8.06;100.00;99910.53;4848798;29;20047;-93
2023/05/10 01:02:13;;;;;;;0.08;0.08;;;;;;;8.03;100.00;99916.91;4869617;29;20037;-94
2023/05/10 01:04:39;;;;;;;0.38;0.38;;;;;;;7.89;100.00;99895.06;4868147;29;20060;-94
2023/05/10 01:07:05;;;;;;;0.63;0.63;;;;;;;7.85;100.00;99897.88;4864043;29;20064;-94
2023/05/10 01:09:31;;;;;;;0.30;0.30;;;;;;;7.74;100.00;99871.69;4851687;29;20559;-93
2023/05/10 01:11:56;;;;;;;0.77;0.77;;;;;;;7.89;100.00;99879.28;4874180;29;20056;-94
2023/05/10 01:14:22;;;;;;;0.32;0.32;;;;;;;7.96;100.00;99895.75;4874975;29;20044;-92
2023/05/10 01:16:49;;;;;;;0.88;0.85;;;;;;;7.94;100.00;99875.25;4858463;29;20502;-94
2023/05/10 01:19:26;;;;;;;0.43;0.43;;;;;;;7.98;100.00;99873.19;4874311;29;20040;-94
2023/05/10 01:22:26;;;;;;;1.38;0.17;;;;;;;8.09;100.00;99887.59;4890340;29;20057;-94
2023/05/10 01:24:57;;;;;;;0.50;0.50;;;;;;;8.11;100.00;99879.66;4849431;29;20709;-95
2023/05/10 01:27:34;;;;;;;0.10;0.10;;;;;;;8.14;100.00;99876.06;4883017;29;20056;-94
2023/05/10 01:30:15;;;;;;;0.85;0.85;;;;;;;8.16;100.00;99881.94;4890983;29;20048;-95
2023/05/10 01:32:55;;;;;;;0.13;0.13;;;;;;;8.20;100.00;99877.13;4864411;29;20080;-95
2023/05/10 01:35:32;;;;;;;0.50;0.50;;;;;;;8.19;100.00;99881.09;4878577;29;20044;-93
2023/05/10 01:38:27;;;;;;;0.55;0.55;;;;;;;8.11;100.00;99879.66;4866759;29;20056;-95
2023/05/10 01:41:15;;;;;;;0.90;0.90;;;;;;;7.90;100.00;99858.75;4871159;29;20068;-90
2023/05/10 01:43:48;;;;;;;1.75;1.65;;;;;;;8.03;100.00;99875.47;4862596;29;20053;-91
2023/05/10 01:46:18;;;;;;;1.25;0.90;;;;;;;8.09;100.00;99871.00;4878831;29;20052;-89
2023/05/10 01:48:55;;;;;;;0.05;0.05;;;;;;;8.05;100.00;99864.78;4866366;29;20060;-90
2023/05/10 01:51:23;;;;;;;0.43;0.43;;;;;;;7.82;100.00;99840.75;4863780;29;20064;-94
2023/05/10 01:53:50;;;;;;;0.08;0.08;;;;;;;7.90;100.00;99846.91;4865474;29;20052;-91
2023/05/10 01:56:16;;;;;;;0.10;0.10;;;;;;;7.95;100.00;99854.72;4879657;29;20049;-89
2023/05/10 01:58:45;;;;;;;0.28;0.28;;;;;;;7.88;100.00;99841.84;4889794;29;20048;-91
2023/05/10 02:01:11;;;;;;;0.20;0.20;;;;;;;7.93;100.00;99840.53;4863265;29;20067;-90
2023/05/10 02:03:38;;;;;;;1.40;1.33;;;;;;;7.86;100.00;99824.91;4879952;29;20045;-89
2023/05/10 02:06:05;;;;;;;0.45;0.45;;;;;;;8.06;100.00;99860.81;4850338;29;20135;-90
2023/05/10 02:08:30;;;;;;;0.47;0.43;;;;;;;8.01;100.00;99850.25;4863243;29;20136;-90
2023/05/10 02:10:56;;;;;;;0.00;0.00;;;;;;;7.95;100.00;99844.47;4864740;29;20036;-91
2023/05/10 02:13:24;;;;;;;0.38;0.38;;;;;;;7.93;100.00;99843.31;4866029;29;20049;-91
2023/05/10 02:15:51;;;;;;;0.28;0.28;;;;;;;7.94;100.00;99847.63;4835712;29;20045;-91
2023/05/10 02:18:17;;;;;;;1.20;0.60;;;;;;;7.99;100.00;99858.19;4851281;29;20044;-91
2023/05/10 02:20:45;;;;;;;0.73;0.73;;;;;;;7.96;100.00;99853.53;4857305;29;20052;-94
2023/05/10 02:23:11;;;;;;;1.00;0.93;;;;;;;7.82;100.00;99843.50;4852755;29;20044;-94
2023/05/10 02:25:38;;;;;;;0.57;0.57;;;;;;;7.87;100.00;99839.50;4859324;29;20384;-94
2023/05/10 02:28:05;;;;;;;0.40;0.22;;;;;;;7.91;100.00;99851.25;4839692;29;20063;-94
2023/05/10 02:30:32;;;;;;;0.55;0.55;;;;;;;7.91;100.00;99848.47;4855469;29;20131;-93
2023/05/10 02:32:58;;;;;;;1.02;0.98;;;;;;;7.83;100.00;99838.78;4859970;29;20171;-93
2023/05/10 02:35:25;;;;;;;2.33;0.75;;;;;;;7.90;100.00;99846.91;4855054;29;20053;-95
2023/05/10 02:37:52;;;;;;;0.55;0.55;;;;;;;7.82;100.00;99839.97;4856510;29;20060;-95
2023/05/10 02:40:18;;;;;;;0.88;0.88;;;;;;;7.79;100.00;99847.13;4855081;29;20048;-95
2023/05/10 02:42:44;;;;;;;0.00;0.00;;;;;;;7.85;100.00;99852.94;4842732;29;20080;-95
2023/05/10 02:45:15;;;;;;;0.63;0.63;;;;;;;7.78;100.00;99848.31;4840040;29;20036;-95
2023/05/10 02:47:42;;;;;;;0.22;0.22;;;;;;;7.80;100.00;99842.38;4855862;29;20464;-95
2023/05/10 02:50:07;;;;;;;0.20;0.20;;;;;;;7.71;100.00;99839.41;4862503;29;20040;-96
2023/05/10 02:52:50;;;;;;;0.25;0.25;;;;;;;7.73;100.00;99834.22;4852799;29;20045;-94
2023/05/10 02:55:16;;;;;;;0.10;0.10;;;;;;;7.77;100.00;99854.25;4850601;29;20041;-94
2023/05/10 02:57:49;;;;;;;0.55;0.47;;;;;;;7.73;100.00;99848.03;4837070;29;20041;-94
2023/05/10 03:00:14;;;;;;;0.00;0.00;;;;;;;7.69;100.00;99833.50;4848130;29;20149;-94
2023/05/10 03:02:40;;;;;;;0.98;0.98;;;;;;;7.79;100.00;99857.38;4850276;29;20407;-93
2023/05/10 03:05:07;;;;;;;2.17;0.55;;;;;;;7.82;100.00;99856.53;4835253;29;20056;-92
2023/05/10 03:07:33;;;;;;;0.80;0.80;;;;;;;7.74;100.00;99830.25;4876764;29;20046;-92
2023/05/10 03:09:58;;;;;;;2.45;0.60;;;;;;;7.79;100.00;99857.38;4843606;29;20145;-91
2023/05/10 03:12:40;;;;;;;0.38;0.38;;;;;;;7.75;100.00;99851.16;4861575;29;20422;-91
2023/05/10 03:15:14;;;;;;;0.20;0.20;;;;;;;7.65;100.00;99843.81;4859532;29;20558;-92
2023/05/10 03:17:39;;;;;;;0.88;0.77;;;;;;;7.71;100.00;99855.97;4834953;29;20478;-94
2023/05/10 03:20:15;;;;;;;0.20;0.20;;;;;;;7.54;100.00;99829.44;4850264;29;20048;-96
2023/05/10 03:22:45;;;;;;;0.13;0.13;;;;;;;7.69;100.00;99844.53;4844995;29;20041;-95
2023/05/10 03:25:12;;;;;;;0.45;0.40;;;;;;;7.74;100.00;99861.41;4864538;29;20057;-95
2023/05/10 03:27:41;;;;;;;0.90;0.82;;;;;;;7.79;100.00;99860.16;4849730;29;20033;-95
2023/05/10 03:30:13;;;;;;;0.68;0.68;;;;;;;7.73;100.00;99843.28;4833504;29;20053;-94
2023/05/10 03:32:39;;;;;;;0.65;0.52;;;;;;;7.83;100.00;99844.31;4834704;29;20057;-95
2023/05/10 03:35:12;;;;;;;2.97;1.60;;;;;;;7.77;100.00;99835.72;4832410;29;20081;-96
2023/05/10 03:37:38;;;;;;;0.70;0.70;;;;;;;7.89;100.00;99850.88;4852236;29;20037;-94
2023/05/10 03:40:05;;;;;;;0.10;0.10;;;;;;;7.89;100.00;99835.09;4852631;29;20041;-95
2023/05/10 03:42:33;;;;;;;0.25;0.25;;;;;;;7.91;100.00;99829.94;4850351;29;20089;-95
2023/05/10 03:44:59;;;;;;;1.83;0.45;;;;;;;7.94;100.00;99847.63;4836373;29;20083;-94
2023/05/10 03:47:24;;;;;;;0.55;0.55;;;;;;;7.89;100.00;99829.56;4844621;29;20096;-91
2023/05/10 03:49:51;;;;;;;0.10;0.10;;;;;;;7.96;100.00;99839.72;4859486;29;20053;-90
2023/05/10 03:52:17;;;;;;;0.10;0.10;;;;;;;7.84;100.00;99812.72;4859307;29;20057;-91
2023/05/10 03:54:43;;;;;;;1.05;0.95;;;;;;;7.93;100.00;99830.28;4857214;29;20052;-91
2023/05/10 03:57:09;;;;;;;1.10;1.08;;;;;;;8.01;100.00;99838.44;4844109;29;20158;-91
2023/05/10 03:59:35;;;;;;;1.67;0.73;;;;;;;7.99;100.00;99827.81;4860352;29;20040;-90
2023/05/10 04:02:01;;;;;;;0.65;0.65;;;;;;;8.05;100.00;99828.09;4845171;29;20053;-92
2023/05/10 04:04:26;;;;;;;1.50;0.77;;;;;;;8.12;100.00;99836.25;4859815;29;20060;-91
2023/05/10 04:06:52;;;;;;;0.43;0.43;;;;;;;8.01;100.00;99825.38;4858839;29;20049;-90
2023/05/10 04:09:18;;;;;;;0.93;0.93;;;;;;;8.11;100.00;99834.69;4860536;29;20487;-89
2023/05/10 04:11:44;;;;;;;0.38;0.38;;;;;;;8.26;100.00;99847.78;4850099;29;20064;-90
2023/05/10 04:14:09;;;;;;;0.57;0.35;;;;;;;8.20;100.00;99837.66;4828126;29;20057;-90
2023/05/10 04:16:35;;;;;;;2.00;1.70;;;;;;;8.18;100.00;99832.56;4845390;29;20032;-89
2023/05/10 04:19:00;;;;;;;4.15;1.27;;;;;;;8.32;100.00;99843.38;4827958;29;20075;-90
2023/05/10 04:21:26;;;;;;;0.70;0.70;;;;;;;8.47;100.00;99845.81;4828565;29;20683;-90
2023/05/10 04:23:51;;;;;;;0.60;0.60;;;;;;;8.50;100.00;99854.03;4862576;29;20878;-90
2023/05/10 04:26:17;;;;;;;0.10;0.10;;;;;;;8.38;100.00;99838.88;4856648;29;20114;-91
2023/05/10 04:28:42;;;;;;;0.93;0.80;;;;;;;8.49;100.00;99841.44;4856256;29;20256;-90
2023/05/10 04:31:09;;;;;;;0.08;0.08;;;;;;;8.57;100.00;99850.34;4859829;29;20153;-91
2023/05/10 04:33:35;;;;;;;1.30;1.20;;;;;;;8.61;100.00;99857.38;4840879;29;20048;-90
2023/05/10 04:36:01;;;;;;;0.35;0.35;;;;;;;8.49;100.00;99835.13;4856738;29;20571;-90
2023/05/10 04:38:26;;;;;;;0.63;0.63;;;;;;;8.63;100.00;99859.69;4842863;29;20049;-91
2023/05/10 04:40:52;;;;;;;1.00;0.88;;;;;;;8.72;100.00;99857.13;4859106;29;20073;-90
2023/05/10 04:43:18;;;;;;;0.50;0.50;;;;;;;8.89;100.00;99855.94;4859157;29;20073;-90
2023/05/10 04:45:44;;;;;;;0.32;0.32;;;;;;;8.95;100.00;99862.50;4855177;29;20128;-90
2023/05/10 04:48:09;;;;;;;1.50;1.27;;;;;;;8.93;100.00;99856.66;4857780;29;20077;-90
2023/05/10 04:50:35;;;;;;;1.00;0.85;;;;;;;9.18;100.00;99878.97;4859172;29;20091;-90
2023/05/10 04:53:00;;;;;;;1.33;1.23;;;;;;;9.15;100.00;99865.22;4874292;29;20423;-90
2023/05/10 04:55:26;;;;;;;2.03;1.75;;;;;;;9.28;100.00;99875.19;4856379;29;20522;-90
2023/05/10 04:57:52;;;;;;;3.53;1.45;;;;;;;9.34;100.00;99873.44;4839074;29;20036;-91
2023/05/10 05:00:18;;;;;;;0.30;0.30;;;;;;;9.52;100.00;99866.69;4832358;29;20048;-90
2023/05/10 05:02:47;;;;;;;0.15;0.15;;;;;;;9.65;100.00;99890.50;4882564;29;20049;-90
2023/05/10 05:05:13;;;;;;;1.05;0.52;;;;;;;9.69;100.00;99876.53;4864403;29;20067;-91
2023/05/10 05:07:38;;;;;;;2.03;1.35;;;;;;;9.87;100.00;99890.69;4879424;29;20132;-92
2023/05/10 05:10:08;;;;;;;0.75;0.75;;;;;;;9.97;100.00;99888.88;4849245;29;20041;-90
2023/05/10 05:12:34;;;;;;;0.90;0.70;;;;;;;10.00;100.00;99866.59;4881663;29;20055;-91
2023/05/10 05:15:00;;;;;;;0.85;0.77;;;;;;;10.29;100.00;99878.50;4851418;29;20041;-90
2023/05/10 05:17:26;;;;;;;0.38;0.38;;;;;;;10.43;100.00;99879.31;4837083;29;20063;-91
2023/05/10 05:19:51;;;;;;;0.20;0.20;;;;;;;10.46;100.00;99856.25;4849897;29;20519;-91
2023/05/10 05:22:17;;;;;;;2.17;1.80;;;;;;;10.65;100.00;99850.50;4864811;29;20395;-92
2023/05/10 05:24:42;;;;;;;1.55;1.38;;;;;;;10.73;100.00;99851.06;4862862;29;20076;-90
2023/05/10 05:27:08;;;;;;;0.45;0.40;;;;;;;11.04;100.00;99871.50;4861986;29;20061;-90
2023/05/10 05:29:33;;;;;;;0.32;0.32;;;;;;;11.20;100.00;99878.97;4865698;29;20148;-90
2023/05/10 05:31:59;;;;;;;0.45;0.43;;;;;;;11.27;100.00;99866.84;4847503;29;20760;-91
2023/05/10 05:34:25;;;;;;;0.57;0.50;;;;;;;11.46;100.00;99880.50;4851308;29;20053;-91
2023/05/10 05:36:52;;;;;;;0.55;0.55;;;;;;;11.47;100.00;99865.38;4840501;29;20052;-92
2023/05/10 05:39:18;;;;;;;0.20;0.20;;;;;;;11.66;100.00;99880.22;4846759;29;20511;-90
2023/05/10 05:41:43;;;;;;;0.47;0.47;;;;;;;11.61;100.00;99856.56;4855842;29;20080;-92
2023/05/10 05:44:09;;;;;;;0.47;0.47;;;;;;;11.94;100.00;99870.94;4849650;29;20036;-93
2023/05/10 05:46:35;;;;;;;2.50;1.30;;;;;;;12.04;100.00;99855.13;4870858;29;20533;-92
2023/05/10 05:49:01;;;;;;;1.75;0.82;;;;;;;12.33;100.00;99877.13;4868031;29;20048;-91
2023/05/10 05:51:27;;;;;;;0.00;0.00;;;;;;;12.19;100.00;99858.16;4835922;29;20322;-93
2023/05/10 05:53:56;;;;;;;0.90;0.90;;;;;;;12.30;100.00;99852.97;4864398;29;20049;-95
2023/05/10 05:56:24;;;;;;;8.10;0.90;;;;;;;12.60;100.00;99877.31;4870980;29;20041;-92
2023/05/10 05:58:50;;;;;;;0.40;0.40;;;;;;;12.50;100.00;99867.34;4851059;29;20049;-92
2023/05/10 06:01:16;;;;;;;0.25;0.25;;;;;;;12.50;100.00;99879.25;4865792;29;20057;-92
2023/05/10 06:03:42;;;;;;;0.90;0.90;;;;;;;12.61;100.00;99901.91;4866394;29;20040;-91
2023/05/10 06:06:07;;;;;;;0.25;0.25;;;;;;;12.57;100.00;99878.22;4864971;29;20049;-92
2023/05/10 06:08:33;;;;;;;0.98;0.47;;;;;;;12.55;100.00;99883.44;4849349;29;20056;-91
2023/05/10 06:11:00;;;;;;;0.40;0.40;;;;;;;12.60;100.00;99907.91;4839747;29;20068;-93
2023/05/10 06:13:31;;;;;;;0.30;0.30;;;;;;;12.64;100.00;99908.56;4864435;29;20249;-93
2023/05/10 06:15:58;;;;;;;0.52;0.47;;;;;;;12.71;100.00;99874.88;4864591;29;20067;-92
2023/05/10 06:18:23;;;;;;;0.20;0.20;;;;;;;13.16;100.00;99895.88;4866540;29;20191;-93
2023/05/10 06:20:50;;;;;;;0.30;0.30;;;;;;;13.14;100.00;99878.84;4850008;29;20059;-93
2023/05/10 07:44:20;;;;;;;0.35;0.35;;;;;;;16.79;78.07;99883.59;4845668;29;20148;-93
2023/05/10 07:46:47;;;;;;;0.45;0.45;;;;;;;16.74;78.77;99856.25;4798419;29;20595;-92
2023/05/10 07:49:13;;;;;;;0.32;0.30;;;;;;;16.86;78.44;99876.06;4835182;29;20132;-92
2023/05/10 07:51:39;;;;;;;0.75;0.75;;;;;;;17.07;76.59;99867.22;4821010;29;20505;-92
2023/05/10 07:54:05;;;;;;;0.20;0.20;;;;;;;17.42;76.76;99884.09;4830560;29;20121;-93
2023/05/10 07:56:32;;;;;;;0.32;0.28;;;;;;;17.51;73.12;99877.59;4803995;29;20041;-93
2023/05/10 07:59:03;;;;;;;0.20;0.20;;;;;;;17.70;71.72;99876.09;4831704;29;20053;-94
2023/05/10 08:01:33;;;;;;;0.22;0.22;;;;;;;17.35;72.42;99861.28;4832188;29;20619;-92
2023/05/10 08:03:58;;;;;;;0.68;0.55;;;;;;;17.23;74.94;99860.31;4810468;29;20037;-93
2023/05/10 08:06:27;;;;;;;0.70;0.70;;;;;;;17.32;72.49;99890.28;4797745;29;20292;-93
2023/05/10 08:08:54;;;;;;;0.20;0.20;;;;;;;17.28;73.61;99868.06;4845164;29;20045;-94
2023/05/10 08:11:20;;;;;;;0.70;0.28;;;;;;;17.39;73.57;99868.22;4843574;29;20067;-94
2023/05/10 08:13:48;;;;;;;0.22;0.22;;;;;;;17.69;73.34;99877.34;4802942;29;20049;-93
2023/05/10 08:16:14;;;;;;;0.20;0.20;;;;;;;17.85;70.66;99881.63;4826591;29;20132;-94
2023/05/10 08:18:40;;;;;;;10.55;1.55;;;;;;;17.98;69.14;99863.19;4803131;29;20037;-94
2023/05/10 08:21:06;;;;;;;1.67;1.02;;;;;;;17.98;68.24;99866.00;4830173;29;20054;-94
2023/05/10 08:23:32;;;;;;;0.52;0.50;;;;;;;17.95;66.89;99885.84;4829771;29;20079;-93
2023/05/10 08:25:57;;;;;;;0.38;0.38;;;;;;;18.15;66.89;99869.00;4815473;29;20046;-93
2023/05/10 08:28:23;;;;;;;0.15;0.15;;;;;;;18.11;66.34;99874.06;4820516;29;20053;-96
2023/05/10 08:30:50;;;;;;;0.70;0.70;;;;;;;18.24;65.10;99888.47;4834653;29;20053;-96
2023/05/10 08:33:17;;;;;;;0.47;0.43;;;;;;;18.47;65.22;99895.91;4820874;29;20041;-95
2023/05/10 08:35:43;;;;;;;0.17;0.17;;;;;;;18.74;61.89;99868.59;4820161;29;20042;-93
2023/05/10 08:38:09;;;;;;;0.10;0.10;;;;;;;18.94;59.57;99885.38;4832191;29;20048;-96
2023/05/10 08:40:38;;;;;;;0.10;0.10;;;;;;;19.07;58.95;99885.75;4826004;29;20087;-95
2023/05/10 08:43:07;;;;;;;0.30;0.30;;;;;;;19.07;58.82;99882.94;4829473;29;20077;-95
2023/05/10 08:45:39;;;;;;;0.20;0.20;;;;;;;19.24;58.47;99883.84;4821298;29;20120;-94
2023/05/10 08:48:14;;;;;;;0.10;0.10;;;;;;;19.39;59.10;99875.22;4848279;29;20058;-94
2023/05/10 08:50:41;;;;;;;0.20;0.20;;;;;;;19.61;54.99;99881.03;4822081;29;20052;-95
2023/05/10 08:53:12;;;;;;;0.80;0.52;;;;;;;19.21;55.07;99864.38;4848787;29;20084;-94
2023/05/10 08:55:45;;;;;;;1.70;0.70;;;;;;;18.94;56.80;99874.91;4822719;29;20049;-95
2023/05/10 08:58:11;;;;;;;0.75;0.32;;;;;;;19.00;57.09;99884.16;4838405;29;20053;-96
2023/05/10 09:00:39;;;;;;;0.13;0.13;;;;;;;18.53;55.78;99857.41;4822081;29;20049;-95
2023/05/10 09:03:06;;;;;;;0.65;0.60;;;;;;;18.56;58.26;99881.69;4804960;29;20600;-94
2023/05/10 09:05:32;;;;;;;0.32;0.32;;;;;;;18.82;58.18;99875.31;4806123;29;20084;-94
2023/05/10 09:08:05;;;;;;;0.45;0.38;;;;;;;18.67;58.61;99880.28;4837478;29;20541;-93
2023/05/10 09:10:31;;;;;;;0.45;0.45;;;;;;;18.62;59.36;99865.69;4805732;29;20057;-94
2023/05/10 09:12:58;;;;;;;0.35;0.35;;;;;;;18.84;57.36;99881.22;4848606;29;20508;-94
2023/05/10 09:15:24;;;;;;;15.43;1.45;;;;;;;18.81;59.32;99876.56;4822153;29;20038;-94
2023/05/10 09:17:51;;;;;;;0.22;0.22;;;;;;;19.12;58.34;99884.25;4821010;29;20126;-94
2023/05/10 09:20:18;;;;;;;0.80;0.50;;;;;;;19.33;57.65;99858.31;4801114;29;20077;-94
2023/05/10 09:22:45;;;;;;;1.85;0.98;;;;;;;19.47;56.01;99877.13;4849183;29;20049;-94
2023/05/10 09:25:13;;;;;;;0.43;0.43;;;;;;;19.11;55.16;99860.97;4832454;29;20502;-94
2023/05/10 09:27:40;;;;;;;1.33;0.63;;;;;;;18.89;58.61;99841.13;4823592;29;20042;-93
2023/05/10 09:30:06;;;;;;;0.52;0.52;;;;;;;19.54;56.06;99870.22;4818451;29;20046;-95
2023/05/10 09:32:43;;;;;;;0.30;0.30;;;;;;;19.54;53.78;99856.94;4848559;29;20423;-96
2023/05/10 09:35:13;;;;;;;0.15;0.15;;;;;;;19.61;51.60;99861.34;4808366;29;20068;-96
2023/05/10 09:37:49;;;;;;;0.52;0.45;;;;;;;19.22;53.39;99843.41;4814807;29;20479;-94
2023/05/10 09:40:20;;;;;;;0.32;0.32;;;;;;;19.73;52.24;99836.84;4830166;29;20133;-94
2023/05/10 09:43:02;;;;;;;1.25;1.08;;;;;;;19.74;52.59;99849.63;4833063;29;20046;-95
2023/05/10 09:45:29;;;;;;;1.10;0.70;;;;;;;18.87;54.45;99836.03;4835094;29;20057;-95
2023/05/10 09:47:56;;;;;;;0.30;0.30;;;;;;;18.60;57.63;99842.91;4843652;29;20037;-94
2023/05/10 09:50:23;;;;;;;0.25;0.25;;;;;;;18.72;58.79;99859.91;4845584;29;20154;-95
2023/05/10 09:52:53;;;;;;;1.00;0.85;;;;;;;18.92;56.96;99851.38;4842523;29;20053;-93
2023/05/10 09:55:21;;;;;;;1.65;1.30;;;;;;;19.05;53.39;99857.34;4852747;29;20044;-94
2023/05/10 09:57:48;;;;;;;0.30;0.30;;;;;;;19.04;54.57;99850.22;4831914;29;20584;-94
2023/05/10 10:00:20;;;;;;;1.98;0.65;;;;;;;19.01;54.83;99842.75;4824640;29;20069;-93
2023/05/10 10:02:47;;;;;;;0.32;0.32;;;;;;;19.30;56.40;99845.25;4836730;29;20152;-95
2023/05/10 10:05:13;;;;;;;0.70;0.63;;;;;;;19.21;55.22;99830.66;4811976;29;20049;-95
2023/05/10 10:07:39;;;;;;;1.20;0.70;;;;;;;19.65;55.17;99844.22;4852463;29;20600;-95
2023/05/10 10:10:05;;;;;;;0.38;0.32;;;;;;;19.55;53.86;99841.63;4860473;29;20065;-93
2023/05/10 10:12:31;;;;;;;0.73;0.73;;;;;;;19.63;55.42;99839.09;4844063;29;20045;-95
2023/05/10 10:14:57;;;;;;;0.22;0.22;;;;;;;19.92;52.60;99844.34;4831597;29;20084;-94
2023/05/10 10:17:24;;;;;;;0.35;0.32;;;;;;;19.50;51.92;99828.28;4827814;29;20065;-93
2023/05/10 10:19:50;;;;;;;0.35;0.35;;;;;;;19.43;53.80;99827.97;4830362;29;20057;-93
2023/05/10 10:22:16;;;;;;;1.80;1.40;;;;;;;19.70;54.19;99827.34;4834619;29;20041;-93
2023/05/10 10:24:42;;;;;;;7.40;1.52;;;;;;;19.86;50.96;99823.06;4840372;29;20395;-94
2023/05/10 10:27:24;;;;;;;0.73;0.40;;;;;;;20.05;48.94;99834.66;4823415;29;20528;-91
2023/05/10 10:29:58;;;;;;;0.77;0.75;;;;;;;19.72;49.89;99818.41;4854533;29;20126;-96
2023/05/10 10:32:57;;;;;;;1.00;0.90;;;;;;;19.81;51.71;99829.47;4839303;29;20044;-96
2023/05/10 10:35:23;;;;;;;0.20;0.20;;;;;;;20.36;51.98;99821.19;4865004;29;20059;-94
2023/05/10 10:37:50;;;;;;;1.10;0.65;;;;;;;21.11;48.45;99822.22;4835050;29;20041;-94
2023/05/10 10:40:30;;;;;;;0.93;0.63;;;;;;;21.28;49.20;99810.94;4837445;29;20127;-96
2023/05/10 10:42:56;;;;;;;0.65;0.65;;;;;;;21.52;46.58;99801.91;4840401;29;20049;-95
2023/05/10 10:45:23;;;;;;;0.75;0.57;;;;;;;21.88;44.41;99809.19;4822068;29;20049;-94
2023/05/10 10:47:54;;;;;;;1.02;0.93;;;;;;;21.65;44.49;99807.75;4836039;29;20125;-96
2023/05/10 10:50:20;;;;;;;0.75;0.73;;;;;;;21.07;45.23;99821.72;4820315;29;20089;-94
2023/05/10 10:52:45;;;;;;;0.70;0.65;;;;;;;20.85;45.73;99816.09;4822889;29;20128;-95
2023/05/10 10:55:12;;;;;;;0.68;0.52;;;;;;;21.04;45.12;99822.75;4817841;29;20057;-93
2023/05/10 10:57:41;;;;;;;0.20;0.20;;;;;;;20.91;44.95;99814.03;4821593;29;20407;-95
2023/05/10 11:00:21;;;;;;;1.10;1.05;;;;;;;20.28;46.61;99824.97;4818105;29;20132;-95
2023/05/10 11:02:48;;;;;;;0.57;0.32;;;;;;;20.36;46.33;99812.75;4827903;29;20045;-95
2023/05/10 11:05:32;;;;;;;0.40;0.40;;;;;;;20.34;47.36;99812.47;4827714;29;20045;-95
2023/05/10 11:07:59;;;;;;;0.70;0.50;;;;;;;20.33;45.49;99794.06;4837590;29;20053;-95
2023/05/10 11:10:26;;;;;;;1.73;0.88;;;;;;;20.37;45.37;99793.78;4836147;29;20045;-96
2023/05/10 11:13:04;;;;;;;0.60;0.60;;;;;;;20.08;46.83;99794.22;4829747;29;20202;-95
2023/05/10 11:15:38;;;;;;;1.65;0.88;;;;;;;19.78;47.73;99788.22;4834776;29;20061;-96
2023/05/10 11:18:39;;;;;;;0.57;0.43;;;;;;;19.66;49.34;99795.09;4818424;29;20057;-95
2023/05/10 11:21:05;;;;;;;0.60;0.50;;;;;;;19.72;48.85;99776.19;4812855;29;20083;-96
2023/05/10 11:23:32;;;;;;;0.40;0.40;;;;;;;19.75;48.80;99789.25;4850974;29;20044;-94
2023/05/10 11:26:00;;;;;;;0.40;0.40;;;;;;;19.64;47.96;99783.59;4812031;29;20167;-96
2023/05/10 11:28:27;;;;;;;1.05;0.60;;;;;;;19.52;47.99;99755.41;4821608;29;20110;-96
2023/05/10 11:30:53;;;;;;;0.45;0.32;;;;;;;19.39;48.76;99779.59;4836626;29;20053;-96
2023/05/10 11:33:19;;;;;;;1.17;0.65;;;;;;;19.47;47.99;99775.84;4819075;29;20066;-95
2023/05/10 11:35:45;;;;;;;0.45;0.45;;;;;;;19.08;48.41;99774.84;4835127;29;20056;-96
2023/05/10 11:38:12;;;;;;;1.55;1.27;;;;;;;18.93;50.58;99777.78;4846396;29;20123;-95
2023/05/10 11:40:38;;;;;;;0.20;0.20;;;;;;;19.60;49.65;99788.69;4838855;29;20082;-95
2023/05/10 11:43:05;;;;;;;0.45;0.45;;;;;;;19.96;49.78;99782.16;4820626;29;20082;-94
2023/05/10 11:45:34;;;;;;;0.17;0.13;;;;;;;20.16;48.01;99773.50;4839946;29;20045;-95
2023/05/10 11:48:00;;;;;;;0.25;0.25;;;;;;;20.45;47.50;99755.38;4852822;29;20059;-95
2023/05/10 11:50:26;;;;;;;0.38;0.38;;;;;;;20.70;46.50;99784.59;4823373;29;20570;-95
2023/05/10 11:52:56;;;;;;;0.40;0.40;;;;;;;20.47;46.31;99764.84;4826690;29;20038;-95
2023/05/10 11:55:22;;;;;;;0.30;0.30;;;;;;;19.87;46.44;99734.53;4841975;29;20054;-96
2023/05/10 11:57:51;;;;;;;2.55;0.75;;;;;;;20.32;44.80;99778.44;4822421;29;20041;-95
2023/05/10 12:00:17;;;;;;;0.35;0.28;;;;;;;20.45;44.75;99778.69;4848944;29;20041;-95
2023/05/10 12:02:46;;;;;;;0.45;0.45;;;;;;;20.26;46.35;99754.31;4817543;29;20434;-96
2023/05/10 12:05:12;;;;;;;0.45;0.13;;;;;;;20.55;45.39;99745.38;4842621;29;20058;-96
2023/05/10 12:07:37;;;;;;;0.38;0.38;;;;;;;20.77;45.72;99770.75;4807784;29;20391;-94
2023/05/10 12:10:10;;;;;;;0.40;0.40;;;;;;;20.87;45.02;99768.41;4823527;29;20529;-95
2023/05/10 12:12:43;;;;;;;0.32;0.32;;;;;;;21.03;46.05;99761.97;4821781;29;20429;-95
2023/05/10 12:15:18;;;;;;;0.40;0.17;;;;;;;21.02;42.95;99768.94;4818665;29;20053;-95
2023/05/10 12:17:44;;;;;;;0.90;0.57;;;;;;;21.52;44.03;99768.81;4822928;29;20041;-94
2023/05/10 12:20:18;;;;;;;1.02;0.90;;;;;;;21.67;41.62;99745.91;4833799;29;20872;-96
2023/05/10 12:22:45;;;;;;;0.35;0.35;;;;;;;21.69;40.70;99769.50;4819479;29;20045;-93
2023/05/10 12:25:11;;;;;;;0.90;0.80;;;;;;;21.42;40.73;99755.50;4805869;29;20135;-94
2023/05/10 12:27:37;;;;;;;0.50;0.50;;;;;;;21.65;41.16;99769.00;4845916;29;20367;-94
2023/05/10 12:30:03;;;;;;;0.95;0.90;;;;;;;21.68;40.70;99738.97;4822236;29;20049;-96
2023/05/10 12:32:39;;;;;;;0.50;0.50;;;;;;;22.10;40.41;99763.91;4831721;29;20041;-95
2023/05/10 12:35:05;;;;;;;1.17;1.05;;;;;;;21.94;39.60;99753.50;4845052;29;20110;-94
2023/05/10 12:37:35;;;;;;;1.05;0.45;;;;;;;21.64;40.25;99744.13;4826676;29;20064;-94
2023/05/10 12:40:02;;;;;;;0.35;0.20;;;;;;;21.96;40.11;99750.16;4821296;29;20049;-95
2023/05/10 12:42:27;;;;;;;0.77;0.73;;;;;;;22.07;38.99;99758.56;4820402;29;20129;-94
2023/05/10 12:44:57;;;;;;;0.20;0.20;;;;;;;21.82;40.54;99740.69;4832944;29;20065;-95
2023/05/10 12:47:22;;;;;;;0.32;0.32;;;;;;;21.83;40.08;99739.41;4821592;29;20045;-96
2023/05/10 12:49:47;;;;;;;0.43;0.43;;;;;;;22.14;40.39;99746.69;4831369;29;20126;-92
2023/05/10 12:52:13;;;;;;;0.28;0.28;;;;;;;21.63;39.95;99753.91;4821466;29;20266;-96
2023/05/10 12:54:39;;;;;;;1.05;0.45;;;;;;;21.27;39.23;99739.66;4816328;29;20091;-95
2023/05/10 14:04:14;;;;;;;3.00;1.30;;;;;;;20.42;41.62;99683.91;4870810;29;20530;-94